sensor_id;sensor_type;location;lat;lon;timestamp;temperature;humidity
67890;DHT22;54685;52.082;5.426;2023-04-01T00:01:26;9.80;99.90
67890;DHT22;54685;52.082;5.426;2023-04-01T00:03:53;9.80;99.90
67890;DHT22;54685;52.082;5.426;2023-04-01T00:06:21;9.80;99.90
67890;DHT22;54685;52.082;5.426;2023-04-01T00:08:48;9.80;99.90
67890;DHT22;54685;52.082;5.426;2023-04-01T00:11:15;9.80;99.90
67890;DHT22;54685;52.082;5.426;2023-04-01T00:13:43;9.80;99.90
67890;DHT22;54685;52.082;5.426;2023-04-01T00:16:10;9.80;99.90
67890;DHT22;54685;52.082;5.426;2023-04-01T00:18:48;9.80;99.90
67890;DHT22;54685;52.082;5.426;2023-04-01T00:21:16;9.80;99.90
67890;DHT22;54685;52.082;5.426;2023-04-01T00:23:43;9.80;99.90
67890;DHT22;54685;52.082;5.426;2023-04-01T00:26:10;9.80;99.90
67890;DHT22;54685;52.082;5.426;2023-04-01T00:28:38;9.80;99.90
67890;DHT22;54685;52.082;5.426;2023-04-01T00:31:07;9.80;99.90
67890;DHT22;54685;52.082;5.426;2023-04-01T00:33:34;9.80;99.90
67890;DHT22;54685;52.082;5.426;2023-04-01T00:36:12;9.80;99.90
67890;DHT22;54685;52.082;5.426;2023-04-01T00:38:40;9.80;99.90
67890;DHT22;54685;52.082;5.426;2023-04-01T00:41:09;9.80;99.90
67890;DHT22;54685;52.082;5.426;2023-04-01T00:43:45;9.80;99.90
67890;DHT22;54685;52.082;5.426;2023-04-01T00:46:13;9.80;99.90
67890;DHT22;54685;52.082;5.426;2023-04-01T00:48:50;9.80;99.90
67890;DHT22;54685;52.082;5.426;2023-04-01T00:51:21;9.80;99.90
67890;DHT22;54685;52.082;5.426;2023-04-01T00:53:51;9.80;99.90
67890;DHT22;54685;52.082;5.426;2023-04-01T00:56:22;9.80;99.90
67890;DHT22;54685;52.082;5.426;2023-04-01T00:58:58;9.80;99.90
67890;DHT22;54685;52.082;5.426;2023-04-01T01:01:26;9.80;99.90
67890;DHT22;54685;52.082;5.426;2023-04-01T01:03:54;9.80;99.90
67890;DHT22;54685;52.082;5.426;2023-04-01T01:06:45;9.80;99.90
67890;DHT22;54685;52.082;5.426;2023-04-01T01:20:48;9.60;99.90
67890;DHT22;54685;52.082;5.426;2023-04-01T01:37:16;9.50;99.90
67890;DHT22;54685;52.082;5.426;2023-04-01T01:39:50;9.50;99.90
67890;DHT22;54685;52.082;5.426;2023-04-01T01:42:20;9.50;99.90
67890;DHT22;54685;52.082;5.426;2023-04-01T01:44:48;9.50;99.90
67890;DHT22;54685;52.082;5.426;2023-04-01T01:47:17;9.50;99.90
67890;DHT22;54685;52.082;5.426;2023-04-01T01:49:46;9.50;99.90
67890;DHT22;54685;52.082;5.426;2023-04-01T01:52:13;9.50;99.90
67890;DHT22;54685;52.082;5.426;2023-04-01T01:54:53;9.40;99.90
67890;DHT22;54685;52.082;5.426;2023-04-01T01:57:23;9.40;99.90
67890;DHT22;54685;52.082;5.426;2023-04-01T01:59:56;9.40;99.90
67890;DHT22;54685;52.082;5.426;2023-04-01T02:02:27;9.40;99.90
67890;DHT22;54685;52.082;5.426;2023-04-01T02:04:58;9.40;99.90
67890;DHT22;54685;52.082;5.426;2023-04-01T02:07:28;9.40;99.90
67890;DHT22;54685;52.082;5.426;2023-04-01T02:09:58;9.40;99.90
67890;DHT22;54685;52.082;5.426;2023-04-01T02:12:24;9.40;99.90
67890;DHT22;54685;52.082;5.426;2023-04-01T02:14:55;9.40;99.90
67890;DHT22;54685;52.082;5.426;2023-04-01T02:17:25;9.40;99.90
67890;DHT22;54685;52.082;5.426;2023-04-01T02:19:57;9.40;99.90
67890;DHT22;54685;52.082;5.426;2023-04-01T02:22:28;9.30;99.90
67890;DHT22;54685;52.082;5.426;2023-04-01T02:25:05;9.30;99.90
67890;DHT22;54685;52.082;5.426;2023-04-01T02:27:32;9.30;99.90
67890;DHT22;54685;52.082;5.426;2023-04-01T02:30:00;9.30;99.90
67890;DHT22;54685;52.082;5.426;2023-04-01T02:32:28;9.30;99.90
67890;DHT22;54685;52.082;5.426;2023-04-01T02:34:56;9.30;99.90
67890;DHT22;54685;52.082;5.426;2023-04-01T02:37:23;9.30;99.90
67890;DHT22;54685;52.082;5.426;2023-04-01T02:39:50;9.30;99.90
67890;DHT22;54685;52.082;5.426;2023-04-01T02:42:17;9.20;99.90
67890;DHT22;54685;52.082;5.426;2023-04-01T02:44:44;9.20;99.90
67890;DHT22;54685;52.082;5.426;2023-04-01T02:47:11;9.20;99.90
67890;DHT22;54685;52.082;5.426;2023-04-01T02:49:37;9.20;99.90
67890;DHT22;54685;52.082;5.426;2023-04-01T02:52:05;9.20;99.90
67890;DHT22;54685;52.082;5.426;2023-04-01T02:54:32;9.20;99.90
67890;DHT22;54685;52.082;5.426;2023-04-01T02:56:59;9.20;99.90
67890;DHT22;54685;52.082;5.426;2023-04-01T02:59:26;9.10;99.90
67890;DHT22;54685;52.082;5.426;2023-04-01T03:01:52;9.10;99.90
67890;DHT22;54685;52.082;5.426;2023-04-01T03:04:19;9.10;99.90
67890;DHT22;54685;52.082;5.426;2023-04-01T03:06:46;9.10;99.90
67890;DHT22;54685;52.082;5.426;2023-04-01T03:09:13;9.10;99.90
67890;DHT22;54685;52.082;5.426;2023-04-01T03:11:41;9.10;99.90
67890;DHT22;54685;52.082;5.426;2023-04-01T03:14:08;9.10;99.90
67890;DHT22;54685;52.082;5.426;2023-04-01T03:16:35;9.10;99.90
67890;DHT22;54685;52.082;5.426;2023-04-01T03:19:02;9.10;99.90
67890;DHT22;54685;52.082;5.426;2023-04-01T03:21:29;9.10;99.90
67890;DHT22;54685;52.082;5.426;2023-04-01T03:23:56;9.10;99.90
67890;DHT22;54685;52.082;5.426;2023-04-01T03:26:23;9.10;99.90
67890;DHT22;54685;52.082;5.426;2023-04-01T03:28:50;9.10;99.90
67890;DHT22;54685;52.082;5.426;2023-04-01T03:31:16;9.10;99.90
67890;DHT22;54685;52.082;5.426;2023-04-01T03:33:49;9.10;99.90
67890;DHT22;54685;52.082;5.426;2023-04-01T03:36:16;9.10;99.90
67890;DHT22;54685;52.082;5.426;2023-04-01T03:38:44;9.10;99.90
67890;DHT22;54685;52.082;5.426;2023-04-01T03:41:16;9.10;99.90
67890;DHT22;54685;52.082;5.426;2023-04-01T03:43:44;9.10;99.90
67890;DHT22;54685;52.082;5.426;2023-04-01T03:46:11;9.10;99.90
67890;DHT22;54685;52.082;5.426;2023-04-01T03:48:38;9.10;99.90
67890;DHT22;54685;52.082;5.426;2023-04-01T03:51:08;9.10;99.90
67890;DHT22;54685;52.082;5.426;2023-04-01T03:53:35;9.20;99.90
67890;DHT22;54685;52.082;5.426;2023-04-01T03:56:05;9.20;99.90
67890;DHT22;54685;52.082;5.426;2023-04-01T03:58:35;9.20;99.90
67890;DHT22;54685;52.082;5.426;2023-04-01T04:01:03;9.20;99.90
67890;DHT22;54685;52.082;5.426;2023-04-01T04:03:31;9.20;99.90
67890;DHT22;54685;52.082;5.426;2023-04-01T04:05:59;9.20;99.90
67890;DHT22;54685;52.082;5.426;2023-04-01T04:08:26;9.20;99.90
67890;DHT22;54685;52.082;5.426;2023-04-01T04:10:56;9.20;99.90
67890;DHT22;54685;52.082;5.426;2023-04-01T04:13:24;9.30;99.90
67890;DHT22;54685;52.082;5.426;2023-04-01T04:15:58;9.30;99.90
67890;DHT22;54685;52.082;5.426;2023-04-01T04:18:26;9.30;99.90
67890;DHT22;54685;52.082;5.426;2023-04-01T04:20:53;9.30;99.90
67890;DHT22;54685;52.082;5.426;2023-04-01T04:23:19;9.30;99.90
67890;DHT22;54685;52.082;5.426;2023-04-01T04:25:58;9.30;99.90
67890;DHT22;54685;52.082;5.426;2023-04-01T04:28:28;9.30;99.90
67890;DHT22;54685;52.082;5.426;2023-04-01T04:30:57;9.30;99.90
67890;DHT22;54685;52.082;5.426;2023-04-01T04:33:25;9.30;99.90
67890;DHT22;54685;52.082;5.426;2023-04-01T04:35:55;9.30;99.90
67890;DHT22;54685;52.082;5.426;2023-04-01T04:38:23;9.40;99.90
67890;DHT22;54685;52.082;5.426;2023-04-01T04:40:49;9.40;99.90
67890;DHT22;54685;52.082;5.426;2023-04-01T04:43:17;9.40;99.90
67890;DHT22;54685;52.082;5.426;2023-04-01T04:45:44;9.40;99.90
67890;DHT22;54685;52.082;5.426;2023-04-01T04:48:13;9.40;99.90
67890;DHT22;54685;52.082;5.426;2023-04-01T04:50:46;9.40;99.90
67890;DHT22;54685;52.082;5.426;2023-04-01T04:53:15;9.40;99.90
67890;DHT22;54685;52.082;5.426;2023-04-01T04:55:52;9.50;99.90
67890;DHT22;54685;52.082;5.426;2023-04-01T04:58:33;9.50;99.90
67890;DHT22;54685;52.082;5.426;2023-04-01T05:01:12;9.50;99.90
67890;DHT22;54685;52.082;5.426;2023-04-01T05:03:39;9.50;99.90
67890;DHT22;54685;52.082;5.426;2023-04-01T05:06:08;9.50;99.90
67890;DHT22;54685;52.082;5.426;2023-04-01T05:08:35;9.50;99.90
67890;DHT22;54685;52.082;5.426;2023-04-01T05:11:02;9.50;99.90
67890;DHT22;54685;52.082;5.426;2023-04-01T05:13:32;9.60;99.90
67890;DHT22;54685;52.082;5.426;2023-04-01T05:15:59;9.60;99.90
67890;DHT22;54685;52.082;5.426;2023-04-01T05:18:25;9.60;99.90
67890;DHT22;54685;52.082;5.426;2023-04-01T05:20:54;9.60;99.90
67890;DHT22;54685;52.082;5.426;2023-04-01T05:23:22;9.60;99.90
67890;DHT22;54685;52.082;5.426;2023-04-01T05:25:49;9.60;99.90
67890;DHT22;54685;52.082;5.426;2023-04-01T05:28:17;9.60;99.90
67890;DHT22;54685;52.082;5.426;2023-04-01T05:30:46;9.60;99.90
67890;DHT22;54685;52.082;5.426;2023-04-01T05:33:30;9.60;99.90
67890;DHT22;54685;52.082;5.426;2023-04-01T05:36:12;9.60;99.90
67890;DHT22;54685;52.082;5.426;2023-04-01T05:38:40;9.60;99.90
67890;DHT22;54685;52.082;5.426;2023-04-01T05:41:09;9.60;99.90
67890;DHT22;54685;52.082;5.426;2023-04-01T05:43:41;9.60;99.90
67890;DHT22;54685;52.082;5.426;2023-04-01T05:46:43;9.60;99.90
67890;DHT22;54685;52.082;5.426;2023-04-01T05:49:28;9.60;99.90
67890;DHT22;54685;52.082;5.426;2023-04-01T05:51:55;9.60;99.90
67890;DHT22;54685;52.082;5.426;2023-04-01T05:54:23;9.70;99.90
67890;DHT22;54685;52.082;5.426;2023-04-01T05:56:50;9.60;99.90
67890;DHT22;54685;52.082;5.426;2023-04-01T05:59:18;9.60;99.90
67890;DHT22;54685;52.082;5.426;2023-04-01T06:01:45;9.60;99.90
67890;DHT22;54685;52.082;5.426;2023-04-01T06:04:14;9.60;99.90
67890;DHT22;54685;52.082;5.426;2023-04-01T06:06:43;9.70;99.90
67890;DHT22;54685;52.082;5.426;2023-04-01T06:09:16;9.70;99.90
67890;DHT22;54685;52.082;5.426;2023-04-01T06:17:39;9.70;99.90
67890;DHT22;54685;52.082;5.426;2023-04-01T06:23:27;9.70;99.90
67890;DHT22;54685;52.082;5.426;2023-04-01T06:29:06;9.70;99.90
67890;DHT22;54685;52.082;5.426;2023-04-01T06:34:39;9.80;99.90
67890;DHT22;54685;52.082;5.426;2023-04-01T06:43:22;9.80;99.90
67890;DHT22;54685;52.082;5.426;2023-04-01T06:53:18;9.80;99.90
67890;DHT22;54685;52.082;5.426;2023-04-01T06:56:10;9.80;99.90
67890;DHT22;54685;52.082;5.426;2023-04-01T06:59:02;9.90;99.90
67890;DHT22;54685;52.082;5.426;2023-04-01T07:01:36;9.90;99.90
67890;DHT22;54685;52.082;5.426;2023-04-01T07:04:24;9.90;99.90
67890;DHT22;54685;52.082;5.426;2023-04-01T07:07:41;9.90;99.90
67890;DHT22;54685;52.082;5.426;2023-04-01T07:09:57;9.90;99.90
67890;DHT22;54685;52.082;5.426;2023-04-01T07:15:30;10.00;99.90
67890;DHT22;54685;52.082;5.426;2023-04-01T07:18:12;10.00;99.90
67890;DHT22;54685;52.082;5.426;2023-04-01T07:20:41;10.00;99.90
67890;DHT22;54685;52.082;5.426;2023-04-01T07:23:16;10.00;99.90
67890;DHT22;54685;52.082;5.426;2023-04-01T07:26:19;10.00;99.90
67890;DHT22;54685;52.082;5.426;2023-04-01T07:28:53;10.00;99.90
67890;DHT22;54685;52.082;5.426;2023-04-01T07:35:04;10.10;99.90
67890;DHT22;54685;52.082;5.426;2023-04-01T07:42:47;10.10;99.90
67890;DHT22;54685;52.082;5.426;2023-04-01T07:45:20;10.10;99.90
67890;DHT22;54685;52.082;5.426;2023-04-01T07:50:52;10.20;99.90
67890;DHT22;54685;52.082;5.426;2023-04-01T07:56:06;10.20;99.90
67890;DHT22;54685;52.082;5.426;2023-04-01T08:02:10;10.20;99.90
67890;DHT22;54685;52.082;5.426;2023-04-01T08:04:55;10.20;99.90
67890;DHT22;54685;52.082;5.426;2023-04-01T08:07:30;10.20;99.90
67890;DHT22;54685;52.082;5.426;2023-04-01T08:13:36;10.30;99.90
67890;DHT22;54685;52.082;5.426;2023-04-01T08:19:31;10.30;99.90
67890;DHT22;54685;52.082;5.426;2023-04-01T08:22:15;10.30;99.90
67890;DHT22;54685;52.082;5.426;2023-04-01T08:24:46;10.30;99.90
67890;DHT22;54685;52.082;5.426;2023-04-01T08:30:52;10.30;99.90
67890;DHT22;54685;52.082;5.426;2023-04-01T08:32:56;10.30;99.90
67890;DHT22;54685;52.082;5.426;2023-04-01T08:36:14;10.30;99.90
67890;DHT22;54685;52.082;5.426;2023-04-01T08:38:26;10.30;99.90
67890;DHT22;54685;52.082;5.426;2023-04-01T08:46:28;10.40;99.90
67890;DHT22;54685;52.082;5.426;2023-04-01T08:52:07;10.40;99.90
67890;DHT22;54685;52.082;5.426;2023-04-01T08:57:58;10.50;99.90
67890;DHT22;54685;52.082;5.426;2023-04-01T09:25:57;10.80;99.90
67890;DHT22;54685;52.082;5.426;2023-04-01T09:28:27;10.80;99.90
67890;DHT22;54685;52.082;5.426;2023-04-01T09:36:18;10.90;99.90
67890;DHT22;54685;52.082;5.426;2023-04-01T09:39:24;10.90;99.90
67890;DHT22;54685;52.082;5.426;2023-04-01T09:45:00;11.00;99.90
67890;DHT22;54685;52.082;5.426;2023-04-01T09:48:05;11.00;99.90
67890;DHT22;54685;52.082;5.426;2023-04-01T09:50:48;11.00;99.90
67890;DHT22;54685;52.082;5.426;2023-04-01T09:53:46;11.00;99.90
67890;DHT22;54685;52.082;5.426;2023-04-01T09:56:33;11.00;99.90
67890;DHT22;54685;52.082;5.426;2023-04-01T10:20:02;11.70;99.90
67890;DHT22;54685;52.082;5.426;2023-04-01T10:25:15;11.90;99.90
67890;DHT22;54685;52.082;5.426;2023-04-01T10:31:11;12.10;99.90
67890;DHT22;54685;52.082;5.426;2023-04-01T10:36:47;12.30;99.90
67890;DHT22;54685;52.082;5.426;2023-04-01T10:39:33;12.30;99.90
67890;DHT22;54685;52.082;5.426;2023-04-01T10:45:59;12.50;99.90
67890;DHT22;54685;52.082;5.426;2023-04-01T11:19:22;12.80;99.90
67890;DHT22;54685;52.082;5.426;2023-04-01T11:22:24;12.80;99.90
67890;DHT22;54685;52.082;5.426;2023-04-01T11:28:28;12.70;99.90
67890;DHT22;54685;52.082;5.426;2023-04-01T11:42:57;12.10;99.90
67890;DHT22;54685;52.082;5.426;2023-04-01T11:52:05;12.10;99.90
67890;DHT22;54685;52.082;5.426;2023-04-01T12:00:42;12.10;99.90
67890;DHT22;54685;52.082;5.426;2023-04-01T12:09:09;11.90;99.90
67890;DHT22;54685;52.082;5.426;2023-04-01T12:12:30;11.80;99.90
67890;DHT22;54685;52.082;5.426;2023-04-01T12:15:10;11.80;99.90
67890;DHT22;54685;52.082;5.426;2023-04-01T12:35:20;11.90;99.90
67890;DHT22;54685;52.082;5.426;2023-04-01T12:38:16;11.90;99.90
67890;DHT22;54685;52.082;5.426;2023-04-01T12:46:38;11.90;99.90
67890;DHT22;54685;52.082;5.426;2023-04-01T12:52:04;11.90;99.90
67890;DHT22;54685;52.082;5.426;2023-04-01T12:55:00;11.90;99.90
67890;DHT22;54685;52.082;5.426;2023-04-01T12:57:46;12.00;99.90
67890;DHT22;54685;52.082;5.426;2023-04-01T13:05:51;12.20;99.90
67890;DHT22;54685;52.082;5.426;2023-04-01T13:08:48;12.50;99.90
67890;DHT22;54685;52.082;5.426;2023-04-01T13:11:30;12.70;99.90
67890;DHT22;54685;52.082;5.426;2023-04-01T13:17:25;12.90;99.90
67890;DHT22;54685;52.082;5.426;2023-04-01T13:36:28;12.40;99.90
67890;DHT22;54685;52.082;5.426;2023-04-01T13:39:22;12.40;99.90
67890;DHT22;54685;52.082;5.426;2023-04-01T13:44:42;12.20;99.90
67890;DHT22;54685;52.082;5.426;2023-04-01T13:53:03;12.00;99.90
67890;DHT22;54685;52.082;5.426;2023-04-01T14:20:24;11.80;99.90
67890;DHT22;54685;52.082;5.426;2023-04-01T14:35:04;11.50;99.90
67890;DHT22;54685;52.082;5.426;2023-04-01T14:43:46;11.50;99.90
67890;DHT22;54685;52.082;5.426;2023-04-01T14:49:33;11.50;99.90
67890;DHT22;54685;52.082;5.426;2023-04-01T14:52:44;11.50;99.90
67890;DHT22;54685;52.082;5.426;2023-04-01T14:58:12;11.40;99.90
67890;DHT22;54685;52.082;5.426;2023-04-01T15:00:50;11.40;99.90
67890;DHT22;54685;52.082;5.426;2023-04-01T15:09:40;11.20;99.90
67890;DHT22;54685;52.082;5.426;2023-04-01T15:15:32;11.20;99.90
67890;DHT22;54685;52.082;5.426;2023-04-01T15:18:12;11.20;99.90
67890;DHT22;54685;52.082;5.426;2023-04-01T15:29:06;11.20;99.90
67890;DHT22;54685;52.082;5.426;2023-04-01T15:42:50;11.30;99.90
67890;DHT22;54685;52.082;5.426;2023-04-01T15:51:26;11.30;99.90
67890;DHT22;54685;52.082;5.426;2023-04-01T15:56:55;11.30;99.90
67890;DHT22;54685;52.082;5.426;2023-04-01T16:05:34;11.20;99.90
67890;DHT22;54685;52.082;5.426;2023-04-01T16:08:17;11.20;99.90
67890;DHT22;54685;52.082;5.426;2023-04-01T16:11:02;11.20;99.90
67890;DHT22;54685;52.082;5.426;2023-04-01T16:19:28;11.00;99.90
67890;DHT22;54685;52.082;5.426;2023-04-01T16:22:11;11.00;99.90
67890;DHT22;54685;52.082;5.426;2023-04-01T16:24:57;11.00;99.90
67890;DHT22;54685;52.082;5.426;2023-04-01T16:27:36;10.90;99.90
67890;DHT22;54685;52.082;5.426;2023-04-01T16:33:03;10.80;99.90
67890;DHT22;54685;52.082;5.426;2023-04-01T16:35:50;10.90;99.90
67890;DHT22;54685;52.082;5.426;2023-04-01T16:43:53;10.70;99.90
67890;DHT22;54685;52.082;5.426;2023-04-01T16:46:34;10.70;99.90
67890;DHT22;54685;52.082;5.426;2023-04-01T17:03:08;10.40;99.90
67890;DHT22;54685;52.082;5.426;2023-04-01T17:08:44;10.40;99.90
67890;DHT22;54685;52.082;5.426;2023-04-01T17:11:21;10.30;99.90
67890;DHT22;54685;52.082;5.426;2023-04-01T17:14:07;10.40;99.90
67890;DHT22;54685;52.082;5.426;2023-04-01T17:16:56;10.30;99.90
67890;DHT22;54685;52.082;5.426;2023-04-01T17:19:49;10.20;99.90
67890;DHT22;54685;52.082;5.426;2023-04-01T17:28:24;10.20;99.90
67890;DHT22;54685;52.082;5.426;2023-04-01T17:39:35;10.10;99.90
67890;DHT22;54685;52.082;5.426;2023-04-01T17:42:14;10.10;99.90
67890;DHT22;54685;52.082;5.426;2023-04-01T17:45:04;10.00;99.90
67890;DHT22;54685;52.082;5.426;2023-04-01T17:47:49;10.00;99.90
67890;DHT22;54685;52.082;5.426;2023-04-01T18:12:36;9.60;99.90
67890;DHT22;54685;52.082;5.426;2023-04-01T18:15:31;9.60;99.90
67890;DHT22;54685;52.082;5.426;2023-04-01T18:18:31;9.70;99.90
67890;DHT22;54685;52.082;5.426;2023-04-01T18:21:14;9.70;99.90
67890;DHT22;54685;52.082;5.426;2023-04-01T18:32:32;9.60;99.90
67890;DHT22;54685;52.082;5.426;2023-04-01T18:35:24;9.60;99.90
67890;DHT22;54685;52.082;5.426;2023-04-01T18:40:33;9.50;99.90
67890;DHT22;54685;52.082;5.426;2023-04-01T18:43:36;9.60;99.90
67890;DHT22;54685;52.082;5.426;2023-04-01T18:57:52;9.50;99.90
67890;DHT22;54685;52.082;5.426;2023-04-01T19:00:32;9.40;99.90
67890;DHT22;54685;52.082;5.426;2023-04-01T19:03:10;9.50;99.90
67890;DHT22;54685;52.082;5.426;2023-04-01T19:05:40;9.50;99.90
67890;DHT22;54685;52.082;5.426;2023-04-01T19:08:33;9.60;99.90
67890;DHT22;54685;52.082;5.426;2023-04-01T19:11:32;9.50;99.90
67890;DHT22;54685;52.082;5.426;2023-04-01T19:14:14;9.30;99.90
67890;DHT22;54685;52.082;5.426;2023-04-01T19:17:15;9.30;99.90
67890;DHT22;54685;52.082;5.426;2023-04-01T19:22:51;9.30;99.90
67890;DHT22;54685;52.082;5.426;2023-04-01T19:25:38;9.30;99.90
67890;DHT22;54685;52.082;5.426;2023-04-01T19:31:35;9.20;99.90
67890;DHT22;54685;52.082;5.426;2023-04-01T19:43:03;9.20;99.90
67890;DHT22;54685;52.082;5.426;2023-04-01T19:48:34;9.20;99.90
67890;DHT22;54685;52.082;5.426;2023-04-01T19:56:23;9.10;99.90
67890;DHT22;54685;52.082;5.426;2023-04-01T19:59:20;9.00;99.90
67890;DHT22;54685;52.082;5.426;2023-04-01T20:01:58;9.00;99.90
67890;DHT22;54685;52.082;5.426;2023-04-01T20:04:51;9.00;99.90
67890;DHT22;54685;52.082;5.426;2023-04-01T20:07:33;9.00;99.90
67890;DHT22;54685;52.082;5.426;2023-04-01T20:10:09;9.00;99.90
67890;DHT22;54685;52.082;5.426;2023-04-01T20:15:44;8.90;99.90
67890;DHT22;54685;52.082;5.426;2023-04-01T20:18:19;8.90;99.90
67890;DHT22;54685;52.082;5.426;2023-04-01T20:20:59;8.80;99.90
67890;DHT22;54685;52.082;5.426;2023-04-01T20:26:12;8.60;99.90
67890;DHT22;54685;52.082;5.426;2023-04-01T20:29:02;8.60;99.90
67890;DHT22;54685;52.082;5.426;2023-04-01T20:31:42;8.50;99.90
67890;DHT22;54685;52.082;5.426;2023-04-01T20:34:14;8.50;99.90
67890;DHT22;54685;52.082;5.426;2023-04-01T20:37:30;8.60;99.90
67890;DHT22;54685;52.082;5.426;2023-04-01T20:49:05;8.40;99.90
67890;DHT22;54685;52.082;5.426;2023-04-01T20:52:17;8.50;99.90
67890;DHT22;54685;52.082;5.426;2023-04-01T20:54:55;8.40;99.90
67890;DHT22;54685;52.082;5.426;2023-04-01T21:03:12;8.50;99.90
67890;DHT22;54685;52.082;5.426;2023-04-01T21:06:37;8.40;99.90
67890;DHT22;54685;52.082;5.426;2023-04-01T21:11:18;8.40;99.90
67890;DHT22;54685;52.082;5.426;2023-04-01T21:16:44;8.30;99.90
67890;DHT22;54685;52.082;5.426;2023-04-01T21:22:35;8.30;99.90
67890;DHT22;54685;52.082;5.426;2023-04-01T21:28:00;8.20;99.90
67890;DHT22;54685;52.082;5.426;2023-04-01T21:51:25;7.90;99.90
67890;DHT22;54685;52.082;5.426;2023-04-01T21:59:48;7.90;99.90
67890;DHT22;54685;52.082;5.426;2023-04-01T22:05:26;7.90;99.90
67890;DHT22;54685;52.082;5.426;2023-04-01T22:13:45;7.80;99.90
67890;DHT22;54685;52.082;5.426;2023-04-01T22:16:46;7.70;99.90
67890;DHT22;54685;52.082;5.426;2023-04-01T22:24:36;7.70;99.90
67890;DHT22;54685;52.082;5.426;2023-04-01T22:30:07;7.70;99.90
67890;DHT22;54685;52.082;5.426;2023-04-01T22:32:46;7.70;99.90
67890;DHT22;54685;52.082;5.426;2023-04-01T22:35:29;7.60;99.90
67890;DHT22;54685;52.082;5.426;2023-04-01T22:43:43;7.60;99.90
67890;DHT22;54685;52.082;5.426;2023-04-01T22:46:19;7.60;99.90
67890;DHT22;54685;52.082;5.426;2023-04-01T22:51:51;7.50;99.90
67890;DHT22;54685;52.082;5.426;2023-04-01T22:54:30;7.60;99.90
67890;DHT22;54685;52.082;5.426;2023-04-01T22:57:08;7.60;99.90
67890;DHT22;54685;52.082;5.426;2023-04-01T22:59:54;7.60;99.90
67890;DHT22;54685;52.082;5.426;2023-04-01T23:02:33;7.60;99.90
67890;DHT22;54685;52.082;5.426;2023-04-01T23:05:03;7.60;99.90
67890;DHT22;54685;52.082;5.426;2023-04-01T23:09:58;7.60;99.90
67890;DHT22;54685;52.082;5.426;2023-04-01T23:12:27;7.50;99.90
67890;DHT22;54685;52.082;5.426;2023-04-01T23:15:00;7.50;99.90
67890;DHT22;54685;52.082;5.426;2023-04-01T23:17:35;7.50;99.90
67890;DHT22;54685;52.082;5.426;2023-04-01T23:23:15;7.30;99.90
67890;DHT22;54685;52.082;5.426;2023-04-01T23:31:38;7.40;99.90
67890;DHT22;54685;52.082;5.426;2023-04-01T23:36:46;7.40;99.90
67890;DHT22;54685;52.082;5.426;2023-04-01T23:39:38;7.40;99.90
67890;DHT22;54685;52.082;5.426;2023-04-01T23:42:19;7.40;99.90
67890;DHT22;54685;52.082;5.426;2023-04-01T23:44:49;7.40;99.90
67890;DHT22;54685;52.082;5.426;2023-04-01T23:47:22;7.40;99.90
67890;DHT22;54685;52.082;5.426;2023-04-01T23:49:56;7.40;99.90
67890;DHT22;54685;52.082;5.426;2023-04-01T23:52:27;7.30;99.90
67890;DHT22;54685;52.082;5.426;2023-04-01T23:55:01;7.30;99.90
67890;DHT22;54685;52.082;5.426;2023-04-01T23:57:35;7.30;99.90
